createdAt,value
2023-12-11T00:00:35.383Z,43.57
2023-12-11T00:01:35.496Z,43.57
2023-12-11T00:02:35.346Z,43.60
2023-12-11T00:03:35.508Z,43.61
2023-12-11T00:04:35.486Z,43.60
2023-12-11T00:05:35.584Z,43.60
2023-12-11T00:06:35.688Z,43.58
2023-12-11T00:07:35.727Z,43.58
2023-12-11T00:08:35.817Z,43.57
2023-12-11T00:09:35.916Z,43.57
2023-12-11T00:10:35.966Z,43.62
2023-12-11T00:11:36.087Z,43.60
2023-12-11T00:12:36.188Z,43.58
2023-12-11T00:13:36.233Z,43.60
2023-12-11T00:14:36.308Z,43.60
2023-12-11T00:15:36.406Z,43.59
2023-12-11T00:16:36.476Z,43.59
2023-12-11T00:17:36.610Z,43.58
2023-12-11T00:18:36.715Z,43.60
2023-12-11T00:19:36.743Z,43.60
2023-12-11T00:20:36.794Z,43.59
2023-12-11T00:21:36.907Z,43.56
2023-12-11T00:22:36.954Z,43.58
2023-12-11T00:23:37.036Z,43.60
2023-12-11T00:24:37.140Z,43.59
2023-12-11T00:25:37.278Z,43.59
2023-12-11T00:26:37.316Z,43.63
2023-12-11T00:27:37.433Z,43.62
2023-12-11T00:28:37.488Z,43.60
2023-12-11T00:29:37.658Z,43.61
2023-12-11T00:30:37.690Z,43.65
2023-12-11T00:31:37.694Z,43.62
2023-12-11T00:32:37.766Z,43.61
2023-12-11T00:33:38.005Z,43.60
2023-12-11T00:34:38.004Z,43.61
2023-12-11T00:35:38.008Z,43.61
2023-12-11T00:36:38.143Z,43.62
2023-12-11T00:37:38.195Z,43.64
2023-12-11T00:38:38.274Z,43.68
2023-12-11T00:39:38.390Z,43.66
2023-12-11T00:40:38.438Z,43.63
2023-12-11T00:41:38.514Z,43.61
2023-12-11T00:42:38.613Z,43.60
2023-12-11T00:43:45.064Z,43.64
2023-12-11T00:44:38.771Z,43.66
2023-12-11T00:45:38.895Z,43.64
2023-12-11T00:46:38.930Z,43.67
2023-12-11T00:47:39.110Z,43.66
2023-12-11T00:48:39.237Z,43.65
2023-12-11T00:49:39.290Z,43.61
2023-12-11T00:50:39.308Z,43.61
2023-12-11T00:51:39.357Z,43.65
2023-12-11T00:52:39.432Z,43.65
2023-12-11T00:53:39.506Z,43.62
2023-12-11T00:54:39.620Z,43.65
2023-12-11T00:55:39.671Z,43.65
2023-12-11T00:56:39.783Z,43.61
2023-12-11T00:57:39.836Z,43.62
2023-12-11T00:58:39.929Z,43.65
2023-12-11T00:59:40.068Z,43.66
2023-12-11T01:00:40.081Z,43.63
2023-12-11T01:01:40.193Z,43.64
2023-12-11T01:02:40.279Z,43.67
2023-12-11T01:03:40.499Z,43.64
2023-12-11T01:04:40.592Z,43.64
2023-12-11T01:05:40.512Z,43.65
2023-12-11T01:06:40.640Z,43.67
2023-12-11T01:07:40.688Z,43.63
2023-12-11T01:08:41.269Z,43.59
2023-12-11T01:09:40.880Z,43.60
2023-12-11T01:10:40.984Z,43.63
2023-12-11T01:11:41.052Z,43.66
2023-12-11T01:12:41.172Z,43.62
2023-12-11T01:13:41.189Z,43.65
2023-12-11T01:14:41.293Z,43.63
2023-12-11T01:15:41.392Z,43.73
2023-12-11T01:16:41.551Z,43.69
2023-12-11T01:17:41.680Z,43.68
2023-12-11T01:18:41.738Z,43.68
2023-12-11T01:19:41.780Z,43.68
2023-12-11T01:20:41.788Z,43.69
2023-12-11T01:21:41.892Z,43.65
2023-12-11T01:22:41.981Z,43.66
2023-12-11T01:23:42.021Z,43.68
2023-12-11T01:24:42.180Z,43.66
2023-12-11T01:25:42.162Z,43.68
2023-12-11T01:26:42.246Z,43.70
2023-12-11T01:27:42.380Z,43.65
2023-12-11T01:28:42.448Z,43.65
2023-12-11T01:29:42.497Z,43.69
2023-12-11T01:30:42.627Z,43.68
2023-12-11T01:31:42.646Z,43.68
2023-12-11T01:32:42.799Z,43.66
2023-12-11T01:33:42.863Z,43.66
2023-12-11T01:34:43.030Z,43.65
2023-12-11T01:35:42.932Z,43.69
2023-12-11T01:36:43.038Z,43.68
2023-12-11T01:37:43.749Z,43.69
2023-12-11T01:38:43.179Z,43.65
2023-12-11T01:39:43.298Z,43.64
2023-12-11T01:40:43.335Z,43.65
2023-12-11T01:41:43.415Z,43.63
2023-12-11T01:42:43.502Z,43.68
2023-12-11T01:43:43.593Z,43.66
2023-12-11T01:44:43.703Z,43.66
2023-12-11T01:45:43.840Z,43.63
2023-12-11T01:46:43.803Z,43.70
2023-12-11T01:47:43.940Z,43.68
2023-12-11T01:48:44.077Z,43.68
2023-12-11T01:49:44.087Z,43.65
2023-12-11T01:50:44.152Z,43.66
2023-12-11T01:51:44.270Z,43.66
2023-12-11T01:52:44.311Z,43.62
2023-12-11T01:53:44.393Z,43.62
2023-12-11T01:54:44.481Z,43.65
2023-12-11T01:55:44.552Z,43.66
2023-12-11T01:56:44.638Z,43.67
2023-12-11T01:57:44.745Z,43.66
2023-12-11T01:58:44.775Z,43.67
2023-12-11T01:59:48.201Z,43.67
2023-12-11T02:00:45.024Z,43.72
2023-12-11T02:01:45.205Z,43.73
2023-12-11T02:02:45.118Z,43.76
2023-12-11T02:03:45.242Z,43.72
2023-12-11T02:04:45.348Z,43.79
2023-12-11T02:05:45.430Z,43.77
2023-12-11T02:06:45.642Z,43.72
2023-12-11T02:07:45.518Z,43.75
2023-12-11T02:08:45.654Z,43.74
2023-12-11T02:09:45.694Z,43.69
2023-12-11T02:10:45.778Z,43.65
2023-12-11T02:11:47.441Z,43.61
2023-12-11T02:12:45.964Z,43.66
2023-12-11T02:13:46.030Z,43.69
2023-12-11T02:14:46.111Z,43.65
2023-12-11T02:15:46.272Z,43.67
2023-12-11T02:16:46.288Z,43.72
2023-12-11T02:17:46.379Z,43.71
2023-12-11T02:18:46.786Z,43.71
2023-12-11T02:19:46.608Z,43.68
2023-12-11T02:20:46.612Z,43.67
2023-12-11T02:21:46.726Z,43.63
2023-12-11T02:22:46.781Z,43.66
2023-12-11T02:23:46.854Z,43.66
2023-12-11T02:24:46.963Z,43.64
2023-12-11T02:25:47.005Z,43.67
2023-12-11T02:26:47.109Z,43.64
2023-12-11T02:27:47.205Z,43.66
2023-12-11T02:28:47.275Z,43.66
2023-12-11T02:29:47.344Z,43.67
2023-12-11T02:30:47.478Z,43.66
2023-12-11T02:31:47.511Z,43.66
2023-12-11T02:32:47.624Z,43.71
2023-12-11T02:33:47.739Z,43.72
2023-12-11T02:34:47.873Z,43.71
2023-12-11T02:35:47.835Z,43.65
2023-12-11T02:36:47.952Z,43.63
2023-12-11T02:37:47.998Z,43.68
2023-12-11T02:38:48.178Z,43.68
2023-12-11T02:39:48.232Z,43.68
2023-12-11T02:40:48.238Z,43.63
2023-12-11T02:41:48.315Z,43.68
2023-12-11T02:42:48.505Z,43.69
2023-12-11T02:43:48.492Z,43.71
2023-12-11T02:44:48.560Z,43.61
2023-12-11T02:45:48.643Z,43.66
2023-12-11T02:46:48.704Z,43.68
2023-12-11T02:47:48.868Z,43.66
2023-12-11T02:48:49.058Z,43.68
2023-12-11T02:49:49.064Z,43.71
2023-12-11T02:50:49.116Z,43.68
2023-12-11T02:51:49.216Z,43.74
2023-12-11T02:52:49.268Z,43.75
2023-12-11T02:53:49.339Z,43.76
2023-12-11T02:54:49.530Z,43.67
2023-12-11T02:55:49.516Z,43.71
2023-12-11T02:56:49.592Z,43.73
2023-12-11T02:57:49.674Z,43.70
2023-12-11T02:58:49.761Z,43.70
2023-12-11T02:59:49.839Z,43.72
2023-12-11T03:00:50.143Z,43.71
2023-12-11T03:01:50.200Z,43.73
2023-12-11T03:02:50.062Z,43.76
2023-12-11T03:03:50.270Z,43.77
2023-12-11T03:04:57.852Z,43.73
2023-12-11T03:05:50.330Z,43.77
2023-12-11T03:06:50.451Z,43.77
2023-12-11T03:07:50.491Z,43.76
2023-12-11T03:08:50.607Z,43.76
2023-12-11T03:09:50.690Z,43.73
2023-12-11T03:10:50.820Z,43.71
2023-12-11T03:11:50.761Z,43.75
2023-12-11T03:12:50.874Z,43.74
2023-12-11T03:13:50.918Z,43.75
2023-12-11T03:14:50.987Z,43.77
2023-12-11T03:15:51.110Z,43.78
2023-12-11T03:16:51.186Z,43.74
2023-12-11T03:17:51.275Z,43.74
2023-12-11T03:18:51.463Z,43.70
2023-12-11T03:19:51.519Z,43.68
2023-12-11T03:20:51.487Z,43.75
2023-12-11T03:21:51.598Z,43.72
2023-12-11T03:22:51.686Z,43.69
2023-12-11T03:23:51.854Z,43.69
2023-12-11T03:24:51.954Z,43.73
2023-12-11T03:25:51.924Z,43.70
2023-12-11T03:26:52.042Z,43.69
2023-12-11T03:27:52.180Z,43.69
2023-12-11T03:28:52.315Z,43.66
2023-12-11T03:29:52.283Z,43.65
2023-12-11T03:30:52.418Z,43.66
2023-12-11T03:31:52.462Z,43.74
2023-12-11T03:32:52.580Z,43.71
2023-12-11T03:33:52.715Z,43.72
2023-12-11T03:34:52.766Z,43.69
2023-12-11T03:35:52.799Z,43.71
2023-12-11T03:36:52.941Z,43.71
2023-12-11T03:37:52.968Z,43.69
2023-12-11T03:38:53.028Z,43.67
2023-12-11T03:39:53.223Z,43.67
2023-12-11T03:40:53.189Z,43.69
2023-12-11T03:41:53.285Z,43.69
2023-12-11T03:42:53.378Z,43.71
2023-12-11T03:43:53.404Z,43.71
2023-12-11T03:44:53.522Z,43.73
2023-12-11T03:45:53.610Z,43.71
2023-12-11T03:46:53.664Z,43.69
2023-12-11T03:47:53.807Z,43.68
2023-12-11T03:48:53.981Z,43.68
2023-12-11T03:49:53.994Z,43.71
2023-12-11T03:50:54.053Z,43.70
2023-12-11T03:51:54.133Z,43.75
2023-12-11T03:52:54.242Z,43.75
2023-12-11T03:53:54.290Z,43.73
2023-12-11T03:54:54.452Z,43.68
2023-12-11T03:55:54.453Z,43.68
2023-12-11T03:56:54.560Z,43.70
2023-12-11T03:57:54.665Z,43.67
2023-12-11T03:58:54.727Z,43.68
2023-12-11T03:59:54.808Z,43.66
2023-12-11T04:00:55.030Z,43.64
2023-12-11T04:01:55.222Z,43.66
2023-12-11T04:02:55.035Z,43.66
2023-12-11T04:03:55.223Z,43.69
2023-12-11T04:04:55.226Z,43.69
2023-12-11T04:05:55.292Z,43.69
2023-12-11T04:06:55.410Z,43.66
2023-12-11T04:07:55.497Z,43.66
2023-12-11T04:08:55.541Z,43.66
2023-12-11T04:09:55.662Z,43.66
2023-12-11T04:10:55.775Z,43.67
2023-12-11T04:11:55.824Z,43.71
2023-12-11T04:12:55.944Z,43.70
2023-12-11T04:13:55.999Z,43.71
2023-12-11T04:14:56.034Z,43.71
2023-12-11T04:15:56.121Z,43.69
2023-12-11T04:16:56.203Z,43.69
2023-12-11T04:17:56.312Z,43.70
2023-12-11T04:18:59.594Z,43.69
2023-12-11T04:19:56.606Z,43.71
2023-12-11T04:20:56.582Z,43.73
2023-12-11T04:21:56.631Z,43.69
2023-12-11T04:22:56.676Z,43.74
2023-12-11T04:23:57.229Z,43.71
2023-12-11T04:24:56.866Z,43.72
2023-12-11T04:25:57.066Z,43.74
2023-12-11T04:26:56.987Z,43.72
2023-12-11T04:27:57.116Z,43.71
2023-12-11T04:28:57.195Z,43.69
2023-12-11T04:29:57.233Z,43.69
2023-12-11T04:30:57.358Z,43.68
2023-12-11T04:31:57.436Z,43.72
2023-12-11T04:32:57.578Z,43.72
2023-12-11T04:33:57.665Z,43.68
2023-12-11T04:34:57.642Z,43.64
2023-12-11T04:35:57.707Z,43.69
2023-12-11T04:36:57.802Z,43.66
2023-12-11T04:37:57.874Z,43.68
2023-12-11T04:38:57.947Z,43.69
2023-12-11T04:39:58.071Z,43.68
2023-12-11T04:40:58.163Z,43.66
2023-12-11T04:41:58.226Z,43.68
2023-12-11T04:42:58.373Z,43.69
2023-12-11T04:43:58.439Z,43.66
2023-12-11T04:44:58.461Z,43.66
2023-12-11T04:45:58.576Z,43.68
2023-12-11T04:46:58.588Z,43.67
2023-12-11T04:47:58.722Z,43.67
2023-12-11T04:48:58.839Z,43.69
2023-12-11T04:49:58.920Z,43.69
2023-12-11T04:50:58.923Z,43.66
2023-12-11T04:51:59.100Z,43.64
2023-12-11T04:52:59.124Z,43.68
2023-12-11T04:53:59.215Z,43.65
2023-12-11T04:54:59.370Z,43.68
2023-12-11T04:55:59.540Z,43.65
2023-12-11T04:56:59.462Z,43.69
2023-12-11T04:57:59.574Z,43.67
2023-12-11T04:58:59.635Z,43.70
2023-12-11T04:59:59.717Z,43.74
2023-12-11T05:00:59.869Z,43.71
2023-12-11T05:01:59.982Z,43.69
2023-12-11T05:02:59.990Z,43.69
2023-12-11T05:04:00.115Z,43.66
2023-12-11T05:05:00.298Z,43.65
2023-12-11T05:06:00.211Z,43.64
2023-12-11T05:07:00.301Z,43.66
2023-12-11T05:08:00.358Z,43.67
2023-12-11T05:09:00.443Z,43.68
2023-12-11T05:10:00.578Z,43.69
2023-12-11T05:11:00.627Z,43.64
2023-12-11T05:12:00.689Z,43.68
2023-12-11T05:13:00.782Z,43.67
2023-12-11T05:14:00.848Z,43.66
2023-12-11T05:15:00.917Z,43.65
2023-12-11T05:16:01.062Z,43.67
2023-12-11T05:17:01.080Z,43.67
2023-12-11T05:18:01.262Z,43.64
2023-12-11T05:19:01.336Z,43.65
2023-12-11T05:20:01.440Z,43.71
2023-12-11T05:21:01.409Z,43.69
2023-12-11T05:22:01.578Z,43.68
2023-12-11T05:23:01.551Z,43.70
2023-12-11T05:24:01.614Z,43.67
2023-12-11T05:25:01.694Z,43.71
2023-12-11T05:26:01.757Z,43.66
2023-12-11T05:27:01.857Z,43.67
2023-12-11T05:28:02.002Z,43.67
2023-12-11T05:29:02.037Z,43.69
2023-12-11T05:30:02.102Z,43.69
2023-12-11T05:31:02.228Z,43.66
2023-12-11T05:32:02.284Z,43.66
2023-12-11T05:33:02.410Z,43.64
2023-12-11T05:34:02.711Z,43.66
2023-12-11T05:35:02.576Z,43.66
2023-12-11T05:36:02.626Z,43.66
2023-12-11T05:37:02.731Z,43.64
2023-12-11T05:38:02.808Z,43.65
2023-12-11T05:39:02.871Z,43.63
2023-12-11T05:40:21.231Z,43.63
2023-12-11T05:41:03.088Z,43.61
2023-12-11T05:42:03.113Z,43.65
2023-12-11T05:43:03.222Z,43.64
2023-12-11T05:44:03.243Z,43.64
2023-12-11T05:45:03.328Z,43.64
2023-12-11T05:46:03.468Z,43.71
2023-12-11T05:47:03.481Z,43.66
2023-12-11T05:48:03.697Z,43.64
2023-12-11T05:49:03.697Z,43.68
2023-12-11T05:50:03.753Z,43.64
2023-12-11T05:51:03.807Z,43.63
2023-12-11T05:52:04.019Z,43.64
2023-12-11T05:53:03.982Z,43.64
2023-12-11T05:54:04.051Z,43.66
2023-12-11T05:55:04.186Z,43.61
2023-12-11T05:56:04.214Z,43.64
2023-12-11T05:57:04.290Z,43.66
2023-12-11T05:58:04.515Z,43.64
2023-12-11T05:59:04.454Z,43.63
2023-12-11T06:00:04.529Z,43.63
2023-12-11T06:01:04.694Z,43.63
2023-12-11T06:02:04.703Z,43.66
2023-12-11T06:03:05.817Z,43.64
2023-12-11T06:04:05.035Z,43.63
2023-12-11T06:05:04.969Z,43.63
2023-12-11T06:06:05.055Z,43.63
2023-12-11T06:07:05.182Z,43.63
2023-12-11T06:08:05.196Z,43.63
2023-12-11T06:09:05.374Z,43.68
2023-12-11T06:10:05.432Z,43.67
2023-12-11T06:11:05.415Z,43.69
2023-12-11T06:12:05.482Z,43.87
2023-12-11T06:13:05.605Z,40.15
2023-12-11T06:14:05.676Z,34.74
2023-12-11T06:15:05.752Z,30.26
2023-12-11T06:16:05.904Z,27.29
2023-12-11T06:17:05.904Z,25.41
2023-12-11T06:18:06.049Z,24.20
2023-12-11T06:19:06.173Z,23.29
2023-12-11T06:20:06.154Z,22.63
2023-12-11T06:21:06.228Z,22.02
2023-12-11T06:22:06.321Z,21.55
2023-12-11T06:23:06.392Z,21.11
2023-12-11T06:24:06.447Z,20.72
2023-12-11T06:25:06.539Z,20.40
2023-12-11T06:26:06.706Z,20.08
2023-12-11T06:27:06.703Z,19.81
2023-12-11T06:28:06.770Z,19.60
2023-12-11T06:29:06.850Z,19.43
2023-12-11T06:30:06.909Z,19.33
2023-12-11T06:31:07.046Z,19.25
2023-12-11T06:32:07.068Z,19.14
2023-12-11T06:33:07.162Z,19.09
2023-12-11T06:34:07.365Z,19.07
2023-12-11T06:35:07.446Z,19.04
2023-12-11T06:36:07.388Z,19.05
2023-12-11T06:37:07.589Z,19.06
2023-12-11T06:38:07.538Z,19.10
2023-12-11T06:39:07.638Z,19.12
2023-12-11T06:40:07.737Z,19.13
2023-12-11T06:41:07.809Z,19.17
2023-12-11T06:42:07.880Z,19.21
2023-12-11T06:43:08.088Z,19.26
2023-12-11T06:44:08.016Z,19.32
2023-12-11T06:45:08.170Z,19.39
2023-12-11T06:46:08.211Z,19.41
2023-12-11T06:47:08.255Z,19.44
2023-12-11T06:48:08.333Z,19.46
2023-12-11T06:49:08.507Z,19.51
2023-12-11T06:50:08.627Z,19.53
2023-12-11T06:51:08.579Z,19.57
2023-12-11T06:52:08.694Z,19.62
2023-12-11T06:53:08.732Z,19.64
2023-12-11T06:54:08.851Z,19.67
2023-12-11T06:55:09.075Z,19.66
2023-12-11T06:56:08.999Z,19.67
2023-12-11T06:57:09.059Z,19.70
2023-12-11T06:58:09.161Z,19.75
2023-12-11T06:59:09.215Z,19.77
2023-12-11T07:00:09.337Z,19.77
2023-12-11T07:01:09.545Z,19.76
2023-12-11T07:02:09.632Z,19.76
2023-12-11T07:03:09.533Z,19.80
2023-12-11T07:04:09.765Z,19.77
2023-12-11T07:05:09.923Z,19.73
2023-12-11T07:06:09.768Z,19.74
2023-12-11T07:07:09.866Z,19.69
2023-12-11T07:08:09.913Z,19.69
2023-12-11T07:09:09.988Z,19.67
2023-12-11T07:10:10.093Z,19.66
2023-12-11T07:11:10.151Z,19.71
2023-12-11T07:12:10.240Z,19.81
2023-12-11T07:13:10.375Z,19.87
2023-12-11T07:14:10.426Z,19.92
2023-12-11T07:15:10.462Z,19.93
2023-12-11T07:16:10.603Z,19.89
2023-12-11T07:17:10.639Z,19.85
2023-12-11T07:18:10.904Z,19.79
2023-12-11T07:19:10.929Z,19.68
2023-12-11T07:20:10.976Z,19.62
2023-12-11T07:21:11.037Z,19.56
2023-12-11T07:22:11.141Z,19.47
2023-12-11T07:23:11.206Z,19.43
2023-12-11T07:24:11.330Z,19.36
2023-12-11T07:25:11.438Z,19.30
2023-12-11T07:26:11.559Z,19.30
2023-12-11T07:27:11.524Z,19.26
2023-12-11T07:28:11.686Z,19.22
2023-12-11T07:29:11.673Z,19.23
2023-12-11T07:30:11.752Z,19.21
2023-12-11T07:31:11.852Z,19.18
2023-12-11T07:32:11.902Z,19.16
2023-12-11T07:33:12.070Z,19.17
2023-12-11T07:34:12.221Z,19.12
2023-12-11T07:35:12.129Z,19.15
2023-12-11T07:36:12.243Z,19.12
2023-12-11T07:37:12.391Z,19.11
2023-12-11T07:38:12.503Z,19.12
2023-12-11T07:39:12.522Z,19.09
2023-12-11T07:40:12.629Z,19.07
2023-12-11T07:41:12.702Z,19.04
2023-12-11T07:42:12.716Z,19.02
2023-12-11T07:43:12.823Z,19.06
2023-12-11T07:44:12.894Z,19.12
2023-12-11T07:45:12.986Z,19.13
2023-12-11T07:46:13.155Z,19.15
2023-12-11T07:47:13.160Z,19.18
2023-12-11T07:48:13.344Z,19.18
2023-12-11T07:49:13.427Z,19.21
2023-12-11T07:50:13.435Z,19.26
2023-12-11T07:51:13.483Z,19.29
2023-12-11T07:52:13.565Z,19.33
2023-12-11T07:53:13.636Z,19.37
2023-12-11T07:54:13.709Z,19.38
2023-12-11T07:55:13.890Z,19.43
2023-12-11T07:56:13.860Z,19.55
2023-12-11T07:57:13.959Z,19.64
2023-12-11T07:58:14.162Z,19.71
2023-12-11T07:59:14.125Z,19.74
2023-12-11T08:00:14.210Z,19.76
2023-12-11T08:01:14.650Z,19.74
2023-12-11T08:02:14.385Z,19.73
2023-12-11T08:03:14.481Z,19.68
2023-12-11T08:04:14.665Z,19.63
2023-12-11T08:05:14.660Z,19.64
2023-12-11T08:06:14.900Z,19.62
2023-12-11T08:07:14.958Z,19.61
2023-12-11T08:08:14.839Z,19.56
2023-12-11T08:09:14.942Z,19.56
2023-12-11T08:10:15.188Z,19.57
2023-12-11T08:11:15.143Z,19.52
2023-12-11T08:12:15.199Z,19.48
2023-12-11T08:13:15.282Z,19.42
2023-12-11T08:14:15.436Z,19.40
2023-12-11T08:15:15.465Z,19.38
2023-12-11T08:16:15.676Z,19.37
2023-12-11T08:17:15.590Z,19.37
2023-12-11T08:18:15.803Z,19.38
2023-12-11T08:19:15.832Z,19.35
2023-12-11T08:20:16.051Z,19.35
2023-12-11T08:21:15.915Z,19.36
2023-12-11T08:22:16.036Z,19.38
2023-12-11T08:23:16.089Z,19.38
2023-12-11T08:24:16.162Z,19.39
2023-12-11T08:25:16.390Z,19.41
2023-12-11T08:26:16.464Z,19.43
2023-12-11T08:27:16.533Z,19.43
2023-12-11T08:28:16.613Z,19.47
2023-12-11T08:29:16.582Z,19.46
2023-12-11T08:30:16.678Z,19.50
2023-12-11T08:31:16.994Z,19.48
2023-12-11T08:32:16.849Z,19.47
2023-12-11T08:33:16.982Z,19.46
2023-12-11T08:34:17.093Z,19.42
2023-12-11T08:35:17.135Z,19.39
2023-12-11T08:36:17.192Z,19.35
2023-12-11T08:37:17.307Z,19.38
2023-12-11T08:38:17.337Z,19.41
2023-12-11T08:39:17.532Z,19.43
2023-12-11T08:40:17.504Z,19.41
2023-12-11T08:41:17.570Z,19.42
2023-12-11T08:42:17.650Z,19.42
2023-12-11T08:43:17.805Z,19.44
2023-12-11T08:44:17.829Z,19.48
2023-12-11T08:45:17.927Z,19.53
2023-12-11T08:46:18.137Z,19.54
2023-12-11T08:47:18.070Z,19.53
2023-12-11T08:48:18.242Z,19.54
2023-12-11T08:49:18.638Z,19.58
2023-12-11T08:50:18.477Z,19.72
2023-12-11T08:51:18.431Z,19.95
2023-12-11T08:52:18.609Z,20.21
2023-12-11T08:53:18.635Z,20.52
2023-12-11T08:54:18.691Z,20.87
2023-12-11T08:55:18.809Z,21.23
2023-12-11T08:56:18.907Z,21.56
2023-12-11T08:57:18.962Z,21.96
2023-12-11T08:58:19.034Z,22.31
2023-12-11T08:59:19.089Z,22.68
2023-12-11T09:00:19.281Z,23.05
2023-12-11T09:01:19.257Z,23.39
2023-12-11T09:02:19.327Z,23.75
2023-12-11T09:03:19.437Z,24.12
2023-12-11T09:04:19.632Z,24.46
2023-12-11T09:05:19.546Z,24.78
2023-12-11T09:06:19.631Z,25.13
2023-12-11T09:07:19.884Z,25.47
2023-12-11T09:08:19.742Z,25.82
2023-12-11T09:09:19.831Z,26.13
2023-12-11T09:10:19.881Z,26.48
2023-12-11T09:11:19.955Z,26.79
2023-12-11T09:12:28.294Z,27.12
2023-12-11T09:13:20.178Z,27.44
2023-12-11T09:14:20.328Z,27.74
2023-12-11T09:15:20.312Z,28.04
2023-12-11T09:16:20.521Z,28.32
2023-12-11T09:17:20.466Z,28.63
2023-12-11T09:18:20.623Z,28.93
2023-12-11T09:19:31.760Z,29.21
2023-12-11T09:20:20.771Z,29.50
2023-12-11T09:21:20.760Z,29.78
2023-12-11T09:22:20.899Z,30.02
2023-12-11T09:23:20.941Z,30.28
2023-12-11T09:24:21.032Z,30.55
2023-12-11T09:25:21.211Z,30.80
2023-12-11T09:26:21.179Z,31.05
2023-12-11T09:27:21.435Z,31.29
2023-12-11T09:28:21.436Z,31.51
2023-12-11T09:29:21.466Z,31.74
2023-12-11T09:30:21.535Z,31.99
2023-12-11T09:31:21.795Z,32.16
2023-12-11T09:32:21.682Z,32.38
2023-12-11T09:33:21.857Z,32.58
2023-12-11T09:34:22.064Z,32.76
2023-12-11T09:35:22.052Z,32.96
2023-12-11T09:36:22.047Z,33.15
2023-12-11T09:37:22.145Z,33.36
2023-12-11T09:38:22.190Z,33.53
2023-12-11T09:39:22.297Z,33.71
2023-12-11T09:40:22.412Z,33.88
2023-12-11T09:41:22.454Z,34.08
2023-12-11T09:42:22.534Z,34.25
2023-12-11T09:43:22.635Z,34.42
2023-12-11T09:44:22.701Z,34.61
2023-12-11T09:45:22.916Z,34.79
2023-12-11T09:46:22.862Z,34.94
2023-12-11T09:47:22.942Z,35.11
2023-12-11T09:48:23.128Z,35.26
2023-12-11T09:49:24.534Z,35.44
2023-12-11T09:50:23.266Z,35.58
2023-12-11T09:51:23.272Z,35.69
2023-12-11T09:52:23.380Z,35.86
2023-12-11T09:53:23.556Z,36.01
2023-12-11T09:54:23.504Z,36.15
2023-12-11T09:55:23.655Z,36.29
2023-12-11T09:56:23.674Z,36.39
2023-12-11T09:57:24.314Z,36.55
2023-12-11T09:58:23.848Z,36.68
2023-12-11T09:59:23.937Z,36.81
2023-12-11T10:00:24.002Z,36.94
2023-12-11T10:01:24.186Z,37.06
2023-12-11T10:02:24.188Z,37.16
2023-12-11T10:03:24.266Z,37.24
2023-12-11T10:04:24.448Z,37.36
2023-12-11T10:05:24.648Z,37.48
2023-12-11T10:06:24.477Z,37.58
2023-12-11T10:07:24.542Z,37.71
2023-12-11T10:08:24.646Z,37.82
2023-12-11T10:09:24.706Z,37.91
2023-12-11T10:10:24.812Z,37.99
2023-12-11T10:11:24.911Z,38.10
2023-12-11T10:12:24.977Z,38.20
2023-12-11T10:13:25.773Z,38.28
2023-12-11T10:14:25.168Z,38.37
2023-12-11T10:15:25.236Z,38.45
2023-12-11T10:16:25.408Z,38.54
2023-12-11T10:17:25.418Z,38.61
2023-12-11T10:18:25.645Z,38.69
2023-12-11T10:19:25.672Z,38.77
2023-12-11T10:20:25.738Z,38.84
2023-12-11T10:21:25.849Z,38.90
2023-12-11T10:22:25.846Z,38.96
2023-12-11T10:23:25.908Z,39.02
2023-12-11T10:24:25.966Z,39.07
2023-12-11T10:25:26.062Z,39.15
2023-12-11T10:26:26.200Z,39.21
2023-12-11T10:27:26.272Z,39.25
2023-12-11T10:28:28.259Z,39.30
2023-12-11T10:29:26.431Z,39.39
2023-12-11T10:30:26.477Z,39.44
2023-12-11T10:31:26.678Z,39.50
2023-12-11T10:32:26.643Z,39.53
2023-12-11T10:33:27.288Z,39.59
2023-12-11T10:34:26.877Z,39.64
2023-12-11T10:35:27.040Z,39.69
2023-12-11T10:36:26.972Z,39.76
2023-12-11T10:37:27.215Z,39.81
2023-12-11T10:38:27.253Z,39.86
2023-12-11T10:39:27.628Z,39.91
2023-12-11T10:40:27.317Z,39.94
2023-12-11T10:41:27.402Z,40.00
2023-12-11T10:42:27.441Z,40.05
2023-12-11T10:43:27.716Z,40.09
2023-12-11T10:44:42.932Z,40.15
2023-12-11T10:45:27.734Z,40.22
2023-12-11T10:46:27.917Z,40.24
2023-12-11T10:47:28.074Z,40.28
2023-12-11T10:48:28.181Z,40.32
2023-12-11T10:49:28.173Z,40.37
2023-12-11T10:50:28.149Z,40.38
2023-12-11T10:51:28.232Z,40.42
2023-12-11T10:52:28.360Z,40.46
2023-12-11T10:53:28.406Z,40.48
2023-12-11T10:54:28.482Z,40.51
2023-12-11T10:55:28.751Z,40.54
2023-12-11T10:56:28.687Z,40.59
2023-12-11T10:57:28.889Z,40.63
2023-12-11T10:58:28.923Z,40.67
2023-12-11T10:59:28.956Z,40.71
2023-12-11T11:00:29.015Z,40.71
2023-12-11T11:01:29.329Z,40.74
2023-12-11T11:02:29.119Z,40.78
2023-12-11T11:03:29.245Z,40.81
2023-12-11T11:04:29.283Z,40.82
2023-12-11T11:05:29.502Z,40.88
2023-12-11T11:06:29.585Z,40.92
2023-12-11T11:07:29.910Z,40.93
2023-12-11T11:08:29.596Z,40.96
2023-12-11T11:09:29.691Z,40.99
2023-12-11T11:10:29.807Z,41.00
2023-12-11T11:11:29.841Z,41.03
2023-12-11T11:12:29.949Z,41.06
2023-12-11T11:13:30.071Z,41.07
2023-12-11T11:14:30.157Z,41.09
2023-12-11T11:15:36.643Z,41.11
2023-12-11T11:16:30.246Z,41.15
2023-12-11T11:17:30.743Z,41.18
2023-12-11T11:18:33.089Z,41.18
2023-12-11T11:19:31.062Z,41.24
2023-12-11T11:20:30.598Z,41.24
2023-12-11T11:21:30.740Z,41.28
2023-12-11T11:22:36.102Z,41.29
2023-12-11T11:23:30.885Z,41.35
2023-12-11T11:24:31.025Z,41.37
2023-12-11T11:25:31.312Z,41.39
2023-12-11T11:26:31.111Z,41.41
2023-12-11T11:27:31.461Z,41.40
2023-12-11T11:28:32.224Z,41.40
2023-12-11T11:29:31.437Z,41.45
2023-12-11T11:30:32.229Z,41.47
2023-12-11T11:31:32.402Z,41.50
2023-12-11T11:32:31.663Z,41.55
2023-12-11T11:33:31.705Z,41.55
2023-12-11T11:34:31.809Z,41.57
2023-12-11T11:35:31.838Z,41.59
2023-12-11T11:36:31.930Z,41.61
2023-12-11T11:37:32.353Z,41.62
2023-12-11T11:38:32.065Z,41.63
2023-12-11T11:39:34.761Z,41.63
2023-12-11T11:40:32.277Z,41.69
2023-12-11T11:41:32.394Z,41.68
2023-12-11T11:42:32.431Z,41.70
2023-12-11T11:43:32.504Z,41.70
2023-12-11T11:44:32.618Z,41.73
2023-12-11T11:45:32.698Z,41.76
2023-12-11T11:46:32.756Z,41.76
2023-12-11T11:47:33.568Z,41.79
2023-12-11T11:48:33.066Z,41.81
2023-12-11T11:49:33.516Z,41.82
2023-12-11T11:50:33.069Z,41.83
2023-12-11T11:51:33.177Z,41.83
2023-12-11T11:52:33.278Z,41.86
2023-12-11T11:53:33.337Z,41.89
2023-12-11T11:54:33.439Z,41.92
2023-12-11T11:55:33.562Z,41.95
2023-12-11T11:56:33.561Z,41.97
2023-12-11T11:57:33.785Z,41.97
2023-12-11T11:58:33.722Z,41.99
2023-12-11T11:59:33.812Z,42.01
2023-12-11T12:00:33.929Z,42.05
2023-12-11T12:01:34.031Z,42.07
2023-12-11T12:02:34.066Z,42.07
2023-12-11T12:03:34.157Z,42.12
2023-12-11T12:04:34.392Z,42.14
2023-12-11T12:05:34.416Z,42.14
2023-12-11T12:06:34.402Z,42.16
2023-12-11T12:07:34.493Z,42.17
2023-12-11T12:08:34.575Z,42.20
2023-12-11T12:09:34.658Z,42.17
2023-12-11T12:10:34.805Z,42.18
2023-12-11T12:11:34.864Z,42.21
2023-12-11T12:12:34.903Z,42.23
2023-12-11T12:13:35.126Z,42.27
2023-12-11T12:14:35.071Z,42.27
2023-12-11T12:15:35.179Z,42.29
2023-12-11T12:16:35.343Z,42.31
2023-12-11T12:17:36.035Z,42.33
2023-12-11T12:18:35.504Z,42.32
2023-12-11T12:19:35.575Z,42.36
2023-12-11T12:20:35.569Z,42.36
2023-12-11T12:21:35.669Z,42.35
2023-12-11T12:22:35.794Z,42.35
2023-12-11T12:23:35.841Z,42.37
2023-12-11T12:24:36.174Z,42.40
2023-12-11T12:25:36.059Z,42.41
2023-12-11T12:26:36.107Z,42.40
2023-12-11T12:27:36.277Z,42.40
2023-12-11T12:28:36.289Z,42.44
2023-12-11T12:29:36.362Z,42.43
2023-12-11T12:30:36.433Z,42.44
2023-12-11T12:31:36.537Z,42.47
2023-12-11T12:32:36.636Z,42.47
2023-12-11T12:33:36.787Z,42.48
2023-12-11T12:34:36.833Z,42.49
2023-12-11T12:35:36.864Z,42.49
2023-12-11T12:36:36.958Z,42.50
2023-12-11T12:37:37.061Z,42.52
2023-12-11T12:38:37.195Z,42.55
2023-12-11T12:39:37.191Z,42.54
2023-12-11T12:40:37.302Z,42.57
2023-12-11T12:41:37.377Z,42.57
2023-12-11T12:42:37.491Z,42.58
2023-12-11T12:43:37.529Z,42.58
2023-12-11T12:44:37.614Z,42.56
2023-12-11T12:45:37.693Z,42.60
2023-12-11T12:46:37.783Z,42.61
2023-12-11T12:47:37.936Z,42.62
2023-12-11T12:48:38.186Z,42.61
2023-12-11T12:49:38.118Z,42.61
2023-12-11T12:50:38.132Z,42.64
2023-12-11T12:51:38.265Z,42.63
2023-12-11T12:52:38.299Z,42.66
2023-12-11T12:53:38.394Z,42.68